Chinley, United Kingdom
Current Conditions -  °F | °C
As of 5:20 AM on Monday 22 Dec 2014 (Local Time) from EGCC Reporting Station
Broken Clouds Broken Clouds  
Wind Chill: 12°   Ceiling: 2100
Heat Index: 12°   Visibility: 6mi
Dew Point:   Wind: 23mph
Humidity: 82%   Direction: 230°SW
Pressure: 29.85"   Gusts: NA
Location:  53.34°N, 1.94°W
Report Text: EGCC 220520Z 23020KT 180V250 9999 BKN021 BKN036 12/09 Q1011 NOSIG
Loading
Personal Weather Stations






























Interactive Weather Map New forecast layout! Learn more

10-Day Weather Forecast

Advertisements
Track Severe Weather on mobile